Aviation Digital Data Service (ADDS)

Output produced by METARs form (1524 UTC 22 April 2021)
found at http://www.aviationweather.gov/metar/data/
 
KMKT 221120Z 2212/2312 25009KT P6SM FEW250 
     FM221800 25011G18KT P6SM SKC 
     FM230000 22008KT P6SM OVC080 
     FM230900 18010KT P6SM -SHRA SCT015 OVC025
       
KRST 221511Z 2215/2312 27015G24KT P6SM SKC 
     FM221900 27014G20KT P6SM SKC 
     FM230000 21008KT P6SM SCT100 
     FM230700 20009KT P6SM BKN080 
     FM231000 20010KT P6SM -SHRA BKN025
       
KMSP 221359Z 2214/2318 25007G12KT P6SM SKC 
     FM221600 24008G18KT P6SM SKC 
     FM230300 21008KT P6SM BKN180 
     FM230900 20006KT P6SM -SHRA SCT035 OVC060 
     FM231100 18006KT P6SM -SHRA BKN025 
     FM231300 16007KT P6SM BKN015